Cuba, NM (87013)

6:00 PM MDT on August 29, 2015 (GMT -0600)
KCEC 1 | | Change Station
CLOSE
Current Station
Personal Weather Station
Location: Lindrith, NM
Elevation: 7247 ft
Nearby Weather Stations

Elev 7247 ft 36.37 °N, 107.11 °W | Updated 3 seconds ago

Partly Cloudy
Partly Cloudy
81.7 °F
Feels Like 80 °F
N
0.0
Wind Variable Wind from SE
Gusts 17.0 mph

Today
High -- | Low -- °F
--% Chance of Precip.
Yesterday
High -- | Low -- °F
Precip. -- in
6:38 AM 7:41 PM
Full, 100% visible
Pressure 30.36 in
Visibility 10.0 miles
Clouds Scattered Clouds 11000 ft
Heat Index 80 °F
Dew Point 47 °F
Humidity 30%
Rainfall 0.00 in
Snow Depth Not available.
UV 2 out of 12
Pollen 6.70 out of 12
Air Quality Not available.
Flu Activity Not available.
METAR KLAM 292335Z AUTO 09008KT 10SM SCT110 24/06 A3036 RMK AO2 T02390063
Pressure 30.36 in
Visibility 10.0 miles
Clouds Scattered Clouds 11000 ft
Heat Index 80 °F
Dew Point 47 °F
Humidity 30%
Rainfall 0.00 in
Snow Depth Not available.
UV 2 out of 12
Pollen 6.70 out of 12
Air Quality Not available.
Flu Activity Not available.
METAR KLAM 292335Z AUTO 09008KT 10SM SCT110 24/06 A3036 RMK AO2 T02390063

10-Day Weather Forecast

×

Almanac

Astronomy

Aug. 29, 2015 Rise Set
Actual Time
Civil Twilight
Nautical Twilight
Astronomical Twilight
Moon
Length of Visible Light
Length of Day
Tomorrow will be .
, % of the Moon is Illuminated

Today's Extremes

State Highs State Lows

Community

WunderPhotos

Upload Photos

1,850,789 photos uploaded!

WunderBlogs® & News

Nearby

Air Quality

  Air Quality AQ Index Pollutant
Not available.

Snow Depth

Station Depth Elevation

Earthquake Activity

City Distance Mag. Time & Date
Minimum magnitude displayed is 2.5.

Coastal Water Temperatures

Place Temperature

Stations

Nearby Weather Stations

Station Location Temp. Windchill Dew Point Humidity Wind Precip. Elev Updated Type